createdAt,value
2022-08-03T00:02:27.857Z,29.56
2022-08-03T00:04:57.942Z,29.63
2022-08-03T00:07:50.007Z,27.61
2022-08-03T00:10:31.158Z,28.95
2022-08-03T00:12:59.943Z,29.38
2022-08-03T00:15:32.774Z,29.05
2022-08-03T00:18:00.814Z,29.31
2022-08-03T00:20:32.781Z,28.82
2022-08-03T00:23:11.867Z,28.28
2022-08-03T00:25:40.410Z,28.33
2022-08-03T00:28:28.946Z,28.88
2022-08-03T00:31:05.568Z,29.02
2022-08-03T00:33:58.838Z,28.97
2022-08-03T00:36:29.627Z,27.59
2022-08-03T00:38:59.551Z,28.85
2022-08-03T00:41:55.522Z,27.79
2022-08-03T00:44:45.677Z,28.59
2022-08-03T00:47:13.932Z,27.90
2022-08-03T00:49:44.488Z,27.14
2022-08-03T00:52:36.731Z,28.03
2022-08-03T00:55:06.084Z,26.81
2022-08-03T00:57:37.043Z,27.91
2022-08-03T01:00:13.465Z,27.85
2022-08-03T01:02:56.119Z,28.37
2022-08-03T01:05:27.558Z,28.22
2022-08-03T01:08:18.943Z,28.54
2022-08-03T01:11:16.643Z,27.01
2022-08-03T01:14:18.985Z,28.63
2022-08-03T01:17:22.256Z,28.09
2022-08-03T01:19:56.581Z,28.36
2022-08-03T01:22:41.909Z,27.73
2022-08-03T01:25:42.544Z,28.33
2022-08-03T01:28:25.260Z,28.56
2022-08-03T01:33:49.238Z,27.90
2022-08-03T01:36:33.769Z,28.02
2022-08-03T01:39:09.765Z,27.38
2022-08-03T01:42:09.031Z,28.32
2022-08-03T01:44:42.913Z,28.35
2022-08-03T01:47:12.895Z,27.39
2022-08-03T01:49:46.282Z,28.28
2022-08-03T01:52:19.721Z,28.37
2022-08-03T01:54:53.012Z,27.15
2022-08-03T01:57:22.600Z,27.51
2022-08-03T01:59:52.899Z,27.94
2022-08-03T02:02:38.125Z,28.30
2022-08-03T02:05:10.967Z,28.30
2022-08-03T02:07:52.032Z,28.27
2022-08-03T02:10:35.394Z,28.31
2022-08-03T02:13:05.493Z,28.04
2022-08-03T02:15:39.593Z,28.17
2022-08-03T02:18:11.677Z,27.79
2022-08-03T02:20:57.705Z,27.89
2022-08-03T02:23:25.320Z,28.10
2022-08-03T02:26:03.104Z,28.15
2022-08-03T02:28:35.939Z,27.83
2022-08-03T02:31:06.367Z,28.18
2022-08-03T02:33:56.575Z,27.96
2022-08-03T02:36:27.366Z,27.88
2022-08-03T02:38:58.811Z,27.92
2022-08-03T02:42:03.159Z,27.84
2022-08-03T02:44:33.207Z,28.02
2022-08-03T02:47:11.501Z,27.83
2022-08-03T02:49:50.279Z,28.01
2022-08-03T02:52:21.706Z,27.74
2022-08-03T02:55:14.756Z,27.88
2022-08-03T02:57:45.525Z,27.37
2022-08-03T03:00:27.642Z,27.55
2022-08-03T03:02:58.482Z,27.93
2022-08-03T03:05:53.026Z,27.84
2022-08-03T03:08:20.923Z,27.95
2022-08-03T03:10:56.798Z,27.71
2022-08-03T03:13:25.275Z,27.99
2022-08-03T03:15:55.059Z,27.95
2022-08-03T03:18:34.183Z,27.86
2022-08-03T03:21:04.745Z,27.92
2022-08-03T03:23:34.791Z,27.96
2022-08-03T03:26:02.584Z,28.01
2022-08-03T03:28:31.055Z,27.87
2022-08-03T03:30:59.130Z,27.84
2022-08-03T03:33:37.576Z,27.62
2022-08-03T03:36:06.698Z,27.77
2022-08-03T03:38:34.611Z,27.61
2022-08-03T03:41:01.892Z,27.75
2022-08-03T03:43:29.747Z,27.21
2022-08-03T03:46:00.047Z,27.73
2022-08-03T03:48:29.889Z,27.68
2022-08-03T03:51:00.792Z,27.69
2022-08-03T03:53:27.755Z,27.71
2022-08-03T03:55:58.926Z,27.83
2022-08-03T03:58:30.922Z,27.72
2022-08-03T04:01:08.977Z,27.77
2022-08-03T04:03:40.978Z,27.08
2022-08-03T04:06:35.183Z,27.70
2022-08-03T04:09:37.059Z,27.67
2022-08-03T04:12:06.997Z,27.86
2022-08-03T04:14:52.072Z,27.75
2022-08-03T04:17:22.971Z,27.70
2022-08-03T04:19:54.592Z,26.30
2022-08-03T04:22:27.388Z,25.80
2022-08-03T04:25:09.655Z,26.15
2022-08-03T04:27:38.967Z,27.79
2022-08-03T04:30:07.240Z,27.63
2022-08-03T04:32:35.847Z,27.88
2022-08-03T04:35:22.598Z,27.85
2022-08-03T04:38:17.142Z,27.78
2022-08-03T04:40:46.902Z,27.78
2022-08-03T04:43:18.873Z,27.66
2022-08-03T04:45:51.988Z,27.77
2022-08-03T04:48:23.149Z,27.97
2022-08-03T04:50:52.461Z,25.98
2022-08-03T04:55:53.387Z,27.44
2022-08-03T04:58:20.539Z,28.05
2022-08-03T05:00:51.116Z,28.05
2022-08-03T05:03:25.223Z,27.80
2022-08-03T05:06:01.989Z,27.23
2022-08-03T05:08:46.442Z,27.68
2022-08-03T05:11:15.802Z,28.14
2022-08-03T05:14:09.773Z,28.29
2022-08-03T05:16:36.989Z,28.26
2022-08-03T05:19:06.799Z,26.63
2022-08-03T05:21:52.321Z,28.20
2022-08-03T05:24:20.687Z,27.91
2022-08-03T05:26:47.733Z,28.79
2022-08-03T05:29:14.863Z,28.92
2022-08-03T05:31:41.863Z,28.56
2022-08-03T05:34:10.087Z,29.12
2022-08-03T05:36:37.151Z,28.99
2022-08-03T05:39:18.164Z,29.24
2022-08-03T05:41:45.384Z,28.62
2022-08-03T05:44:12.364Z,29.08
2022-08-03T05:46:41.019Z,29.37
2022-08-03T05:49:09.119Z,29.76
2022-08-03T05:51:42.090Z,29.75
2022-08-03T05:54:12.442Z,29.90
2022-08-03T05:56:41.094Z,30.02
2022-08-03T05:59:35.814Z,30.12
2022-08-03T06:02:08.484Z,29.52
2022-08-03T06:04:36.441Z,29.77
2022-08-03T06:07:09.626Z,29.36
2022-08-03T06:10:37.650Z,29.93
2022-08-03T06:12:24.426Z,30.27
2022-08-03T06:14:51.600Z,30.02
2022-08-03T06:17:19.514Z,29.81
2022-08-03T06:19:47.106Z,30.78
2022-08-03T06:22:14.376Z,31.26
2022-08-03T06:24:53.260Z,31.04
2022-08-03T06:27:29.345Z,31.08
2022-08-03T06:30:12.204Z,31.64
2022-08-03T06:32:40.628Z,32.04
2022-08-03T06:35:08.757Z,32.15
2022-08-03T06:37:50.517Z,31.14
2022-08-03T06:40:34.091Z,32.18
2022-08-03T06:43:09.517Z,32.40
2022-08-03T06:45:39.632Z,32.47
2022-08-03T06:48:28.040Z,32.79
2022-08-03T06:50:56.740Z,32.91
2022-08-03T06:53:35.866Z,31.50
2022-08-03T06:56:06.385Z,32.14
2022-08-03T06:58:37.832Z,32.37
2022-08-03T07:01:05.828Z,32.43
2022-08-03T07:03:34.475Z,32.78
2022-08-03T07:06:07.538Z,32.79
2022-08-03T07:08:35.802Z,33.29
2022-08-03T07:11:03.189Z,32.08
2022-08-03T07:13:31.273Z,33.02
2022-08-03T07:15:58.913Z,32.24
2022-08-03T07:18:30.093Z,32.97
2022-08-03T07:21:02.243Z,32.66
2022-08-03T07:23:44.860Z,33.25
2022-08-03T07:26:11.957Z,33.01
2022-08-03T07:28:52.947Z,34.14
2022-08-03T07:31:23.510Z,33.05
2022-08-03T07:34:04.252Z,33.96
2022-08-03T07:36:32.510Z,33.70
2022-08-03T07:39:15.868Z,33.36
2022-08-03T07:41:45.146Z,32.05
2022-08-03T07:44:41.050Z,32.79
2022-08-03T07:47:08.359Z,34.42
2022-08-03T07:49:44.564Z,33.06
2022-08-03T07:52:37.283Z,33.91
2022-08-03T07:55:06.769Z,33.99
2022-08-03T07:58:12.581Z,34.34
2022-08-03T08:00:40.205Z,34.14
2022-08-03T08:03:13.846Z,34.24
2022-08-03T08:05:42.839Z,34.97
2022-08-03T08:08:15.892Z,33.74
2022-08-03T08:10:58.357Z,34.92
2022-08-03T08:13:31.820Z,34.57
2022-08-03T08:15:58.666Z,34.50
2022-08-03T08:18:32.673Z,34.31
2022-08-03T08:21:06.138Z,33.86
2022-08-03T08:23:44.809Z,35.70
2022-08-03T08:26:19.418Z,32.81
2022-08-03T08:29:07.482Z,33.32
2022-08-03T08:31:48.096Z,33.35
2022-08-03T08:34:17.268Z,35.81
2022-08-03T08:36:46.035Z,35.20
2022-08-03T08:39:19.167Z,33.01
2022-08-03T08:41:53.184Z,34.87
2022-08-03T08:47:23.599Z,35.03
2022-08-03T08:50:09.716Z,33.97
2022-08-03T08:52:46.773Z,34.03
2022-08-03T08:55:24.122Z,35.14
2022-08-03T08:58:00.190Z,36.87
2022-08-03T09:00:27.205Z,37.33
2022-08-03T09:03:02.205Z,35.79
2022-08-03T09:05:54.950Z,35.73
2022-08-03T09:08:26.279Z,36.42
2022-08-03T09:11:57.759Z,36.88
2022-08-03T09:14:36.632Z,36.64
2022-08-03T09:17:17.272Z,35.63
2022-08-03T09:20:10.618Z,37.02
2022-08-03T09:22:57.751Z,36.64
2022-08-03T09:25:36.815Z,36.25
2022-08-03T09:28:07.221Z,35.86
2022-08-03T09:33:17.342Z,36.38
2022-08-03T09:35:54.212Z,35.61
2022-08-03T09:38:29.076Z,36.04
2022-08-03T09:41:00.962Z,36.51
2022-08-03T09:43:45.763Z,36.11
2022-08-03T09:46:12.867Z,36.95
2022-08-03T09:48:41.166Z,36.51
2022-08-03T09:51:14.467Z,35.92
2022-08-03T09:54:12.648Z,37.26
2022-08-03T09:56:47.520Z,37.61
2022-08-03T09:59:25.419Z,36.20
2022-08-03T10:01:54.438Z,36.02
2022-08-03T10:04:23.219Z,37.63
2022-08-03T10:07:13.684Z,38.30
2022-08-03T10:09:54.520Z,38.25
2022-08-03T10:12:22.861Z,38.10
2022-08-03T10:14:52.757Z,37.56
2022-08-03T10:17:23.754Z,37.99
2022-08-03T10:19:52.616Z,37.68
2022-08-03T10:22:34.502Z,36.82
2022-08-03T10:25:13.553Z,36.88
2022-08-03T10:27:42.085Z,37.93
2022-08-03T10:30:18.516Z,38.26
2022-08-03T10:33:01.735Z,39.28
2022-08-03T10:35:32.052Z,39.63
2022-08-03T10:38:26.261Z,39.78
2022-08-03T10:41:00.408Z,38.78
2022-08-03T10:43:38.198Z,39.58
2022-08-03T10:46:07.501Z,38.32
2022-08-03T10:48:36.212Z,38.93
2022-08-03T10:51:40.927Z,39.17
2022-08-03T10:54:08.119Z,38.40
2022-08-03T10:57:13.621Z,37.04
2022-08-03T11:00:07.067Z,39.05
2022-08-03T11:03:15.202Z,39.08
2022-08-03T11:05:49.292Z,39.41
2022-08-03T11:08:43.849Z,38.82
2022-08-03T11:11:19.607Z,39.07
2022-08-03T11:14:16.530Z,38.89
2022-08-03T11:16:57.084Z,39.06
2022-08-03T11:19:28.898Z,39.17
2022-08-03T11:22:14.183Z,38.25
2022-08-03T11:24:42.871Z,38.98
2022-08-03T11:27:35.392Z,39.21
2022-08-03T11:30:31.734Z,40.11
2022-08-03T11:33:02.273Z,37.88
2022-08-03T11:36:02.806Z,39.72
2022-08-03T11:38:31.771Z,37.36
2022-08-03T11:41:59.608Z,39.42
2022-08-03T11:44:47.513Z,39.87
2022-08-03T11:47:20.152Z,41.08
2022-08-03T11:50:04.606Z,41.32
2022-08-03T11:52:36.857Z,40.23
2022-08-03T11:55:12.877Z,39.97
2022-08-03T11:59:01.554Z,38.77
2022-08-03T12:00:35.986Z,38.36
2022-08-03T12:03:15.005Z,39.06
2022-08-03T12:06:02.955Z,39.23
2022-08-03T12:08:36.064Z,38.66
2022-08-03T12:11:07.562Z,37.06
2022-08-03T12:14:44.034Z,39.92
2022-08-03T12:16:29.838Z,39.81
2022-08-03T12:19:08.326Z,40.44
2022-08-03T12:21:35.349Z,39.94
2022-08-03T12:24:05.970Z,40.67
2022-08-03T12:26:59.195Z,41.40
2022-08-03T12:29:30.320Z,41.09
2022-08-03T12:32:01.656Z,40.69
2022-08-03T12:34:50.416Z,40.74
2022-08-03T12:37:26.222Z,41.46
2022-08-03T12:40:00.608Z,40.50
2022-08-03T12:42:38.102Z,40.13
2022-08-03T12:45:26.781Z,40.87
2022-08-03T12:48:14.681Z,40.73
2022-08-03T12:50:41.818Z,40.33
2022-08-03T12:53:29.239Z,39.69
2022-08-03T12:56:05.230Z,40.10
2022-08-03T12:58:44.573Z,39.84
2022-08-03T13:01:37.993Z,40.45
2022-08-03T13:04:33.812Z,39.71
2022-08-03T13:07:06.625Z,38.90
2022-08-03T13:09:54.473Z,39.77
2022-08-03T13:12:32.833Z,39.63
2022-08-03T13:15:02.341Z,39.89
2022-08-03T13:17:29.031Z,40.97
2022-08-03T13:20:07.283Z,40.55
2022-08-03T13:22:35.754Z,40.68
2022-08-03T13:25:21.412Z,40.13
2022-08-03T13:28:05.085Z,38.15
2022-08-03T13:30:34.706Z,39.47
2022-08-03T13:33:09.199Z,39.52
2022-08-03T13:35:36.103Z,39.88
2022-08-03T13:38:04.765Z,39.99
2022-08-03T13:40:36.748Z,40.14
2022-08-03T13:43:17.119Z,39.15
2022-08-03T13:45:54.898Z,39.61
2022-08-03T13:48:35.963Z,38.77
2022-08-03T13:51:22.208Z,38.57
2022-08-03T13:54:00.039Z,38.47
2022-08-03T13:57:00.358Z,39.76
2022-08-03T13:59:53.419Z,39.29
2022-08-03T14:02:22.165Z,39.40
2022-08-03T14:04:54.967Z,39.71
2022-08-03T14:07:21.919Z,39.75
2022-08-03T14:09:51.878Z,39.33
2022-08-03T14:12:23.031Z,38.77
2022-08-03T14:14:50.250Z,39.57
2022-08-03T14:17:18.980Z,38.98
2022-08-03T14:19:53.561Z,39.46
2022-08-03T14:22:30.209Z,38.68
2022-08-03T14:24:58.199Z,39.04
2022-08-03T14:27:28.478Z,39.22
2022-08-03T14:30:04.302Z,39.68
2022-08-03T14:32:32.753Z,39.36
2022-08-03T14:35:00.895Z,39.46
2022-08-03T14:37:36.882Z,39.47
2022-08-03T14:40:10.470Z,39.04
2022-08-03T14:42:39.465Z,38.69
2022-08-03T14:45:09.414Z,38.79
2022-08-03T14:50:24.947Z,38.85
2022-08-03T14:50:42.091Z,39.75
2022-08-03T14:56:10.138Z,39.20
2022-08-03T14:58:37.543Z,38.83
2022-08-03T15:02:04.510Z,38.90
2022-08-03T15:03:56.231Z,38.64
2022-08-03T15:06:23.876Z,38.69
2022-08-03T15:09:21.597Z,39.26
2022-08-03T15:11:46.807Z,39.50
2022-08-03T15:14:14.820Z,39.31
2022-08-03T15:16:42.393Z,39.33
2022-08-03T15:20:00.264Z,39.31
2022-08-03T15:21:56.391Z,39.25
2022-08-03T15:24:25.296Z,39.05
2022-08-03T15:26:58.615Z,39.18
2022-08-03T15:30:05.377Z,39.25
2022-08-03T15:32:13.386Z,39.35
2022-08-03T15:35:01.259Z,37.90
2022-08-03T15:37:29.010Z,38.68
2022-08-03T15:40:18.667Z,39.07
2022-08-03T15:42:46.905Z,39.41
2022-08-03T15:45:26.552Z,38.20
2022-08-03T15:48:17.570Z,38.10
2022-08-03T15:51:02.859Z,39.20
2022-08-03T15:54:03.167Z,38.51
2022-08-03T15:56:32.591Z,38.89
2022-08-03T15:59:12.822Z,38.30
2022-08-03T16:01:48.774Z,36.60
2022-08-03T16:04:17.780Z,39.05
2022-08-03T16:06:44.610Z,38.47
2022-08-03T16:09:23.369Z,38.22
2022-08-03T16:15:14.899Z,38.41
2022-08-03T16:17:44.132Z,37.12
2022-08-03T16:20:31.656Z,38.02
2022-08-03T16:23:11.498Z,37.43
2022-08-03T16:25:49.518Z,38.56
2022-08-03T16:28:21.521Z,39.01
2022-08-03T16:31:00.543Z,38.51
2022-08-03T16:33:38.167Z,37.23
2022-08-03T16:36:34.670Z,38.28
2022-08-03T16:39:13.848Z,37.56
2022-08-03T16:42:00.691Z,37.17
2022-08-03T16:44:33.414Z,38.42
2022-08-03T16:47:21.790Z,38.48
2022-08-03T16:50:00.390Z,37.28
2022-08-03T16:52:29.207Z,38.70
2022-08-03T16:54:56.337Z,38.31
2022-08-03T16:57:58.687Z,38.96
2022-08-03T17:00:32.958Z,38.99
2022-08-03T17:03:04.462Z,38.67
2022-08-03T17:05:46.864Z,38.81
2022-08-03T17:08:15.713Z,38.67
2022-08-03T17:10:45.648Z,38.54
2022-08-03T17:13:27.698Z,38.14
2022-08-03T17:16:10.787Z,38.10
2022-08-03T17:18:55.516Z,38.03
2022-08-03T17:21:34.358Z,38.32
2022-08-03T17:24:55.646Z,38.45
2022-08-03T17:28:48.617Z,38.26
2022-08-03T17:30:57.671Z,36.65
2022-08-03T17:33:35.320Z,38.55
2022-08-03T17:36:37.001Z,38.59
2022-08-03T18:03:58.699Z,38.05
2022-08-03T18:06:31.393Z,37.96
2022-08-03T18:11:55.955Z,38.01
2022-08-03T18:14:57.801Z,37.46
2022-08-03T18:17:54.942Z,36.03
2022-08-03T18:20:34.812Z,37.99
2022-08-03T18:23:09.814Z,37.62
2022-08-03T18:25:50.012Z,37.19
2022-08-03T18:28:19.549Z,37.98
2022-08-03T18:30:55.301Z,37.61
2022-08-03T18:34:18.879Z,37.78
2022-08-03T18:36:22.070Z,37.77
2022-08-03T18:39:04.184Z,37.44
2022-08-03T18:41:34.621Z,37.77
2022-08-03T18:44:08.519Z,37.61
2022-08-03T18:47:07.073Z,37.38
2022-08-03T18:49:40.178Z,37.31
2022-08-03T18:52:54.356Z,36.55
2022-08-03T18:55:35.686Z,36.78
2022-08-03T18:58:41.996Z,36.97
2022-08-03T19:01:59.641Z,36.82
2022-08-03T19:04:25.992Z,36.67
2022-08-03T19:07:00.915Z,36.53
2022-08-03T19:10:03.805Z,34.89
2022-08-03T19:16:23.551Z,33.03
2022-08-03T19:19:44.481Z,33.34
2022-08-03T19:22:22.599Z,35.55
2022-08-03T19:25:14.542Z,34.32
2022-08-03T19:44:02.072Z,34.48
2022-08-03T19:47:05.665Z,32.35
2022-08-03T19:56:05.869Z,34.24
2022-08-03T19:59:50.003Z,33.93
2022-08-03T20:02:26.360Z,32.26
2022-08-03T20:05:14.768Z,33.67
2022-08-03T20:08:12.069Z,31.07
2022-08-03T20:10:51.982Z,33.64
2022-08-03T20:13:30.724Z,30.87
2022-08-03T21:33:29.816Z,31.16
2022-08-03T21:55:01.278Z,28.35
2022-08-03T22:16:32.506Z,31.59
2022-08-03T22:19:00.766Z,31.26
2022-08-03T22:21:36.270Z,31.26
2022-08-03T22:24:05.802Z,30.81
2022-08-03T22:26:35.840Z,31.27
2022-08-03T22:29:08.645Z,30.10
2022-08-03T22:31:58.531Z,31.11
2022-08-03T22:34:27.507Z,31.11
2022-08-03T22:37:02.167Z,31.05
2022-08-03T22:39:30.900Z,31.03
2022-08-03T22:42:05.194Z,29.84
2022-08-03T22:44:32.775Z,30.48
2022-08-03T22:47:00.266Z,29.45
2022-08-03T22:49:30.413Z,30.81
2022-08-03T22:52:06.184Z,29.66
2022-08-03T22:54:33.740Z,30.90
2022-08-03T22:57:02.906Z,30.88
2022-08-03T22:59:39.128Z,30.90
2022-08-03T23:02:21.555Z,30.81
2022-08-03T23:04:56.702Z,30.77
2022-08-03T23:07:31.322Z,30.50
2022-08-03T23:10:01.051Z,30.26
2022-08-03T23:12:40.967Z,30.36
2022-08-03T23:15:12.977Z,30.52
2022-08-03T23:18:03.710Z,30.27
2022-08-03T23:20:33.184Z,30.48
2022-08-03T23:23:01.288Z,30.47
2022-08-03T23:25:55.815Z,30.31
2022-08-03T23:28:25.930Z,30.41
2022-08-03T23:30:54.484Z,30.42
2022-08-03T23:33:43.316Z,30.34
2022-08-03T23:36:31.158Z,30.32
2022-08-03T23:39:03.540Z,30.31
2022-08-03T23:41:32.699Z,28.99
2022-08-03T23:44:03.718Z,30.28
2022-08-03T23:46:32.164Z,30.32
2022-08-03T23:49:00.958Z,30.06
2022-08-03T23:51:31.014Z,29.86
2022-08-03T23:54:10.394Z,30.07
2022-08-03T23:56:54.480Z,30.07
2022-08-03T23:59:28.757Z,30.11
